sensor_id;sensor_type;location;lat;lon;timestamp;P1;durP1;ratioP1;P2;durP2;ratioP2
23561;SDS011;11959;49.418;8.728;2023-07-13T00:01:50;3.28;;;1.40;;
23561;SDS011;11959;49.418;8.728;2023-07-13T00:04:17;2.58;;;1.17;;
23561;SDS011;11959;49.418;8.728;2023-07-13T00:06:44;2.30;;;1.10;;
23561;SDS011;11959;49.418;8.728;2023-07-13T00:09:14;2.67;;;1.27;;
23561;SDS011;11959;49.418;8.728;2023-07-13T00:11:41;1.92;;;1.10;;
23561;SDS011;11959;49.418;8.728;2023-07-13T00:14:07;1.95;;;1.00;;
23561;SDS011;11959;49.418;8.728;2023-07-13T00:16:34;1.25;;;1.00;;
23561;SDS011;11959;49.418;8.728;2023-07-13T00:19:01;2.20;;;1.20;;
23561;SDS011;11959;49.418;8.728;2023-07-13T00:21:27;3.92;;;1.40;;
23561;SDS011;11959;49.418;8.728;2023-07-13T00:23:53;3.70;;;1.20;;
23561;SDS011;11959;49.418;8.728;2023-07-13T00:26:19;2.28;;;1.20;;
23561;SDS011;11959;49.418;8.728;2023-07-13T00:28:45;2.17;;;1.20;;
23561;SDS011;11959;49.418;8.728;2023-07-13T00:31:11;1.60;;;1.08;;
23561;SDS011;11959;49.418;8.728;2023-07-13T00:33:39;2.83;;;1.08;;
23561;SDS011;11959;49.418;8.728;2023-07-13T00:36:05;1.63;;;1.10;;
23561;SDS011;11959;49.418;8.728;2023-07-13T00:38:31;2.30;;;0.90;;
23561;SDS011;11959;49.418;8.728;2023-07-13T00:40:57;4.07;;;1.08;;
23561;SDS011;11959;49.418;8.728;2023-07-13T00:43:25;3.40;;;1.25;;
23561;SDS011;11959;49.418;8.728;2023-07-13T00:48:19;2.72;;;1.48;;
23561;SDS011;11959;49.418;8.728;2023-07-13T00:50:48;3.40;;;1.38;;
23561;SDS011;11959;49.418;8.728;2023-07-13T00:53:18;3.42;;;1.25;;
23561;SDS011;11959;49.418;8.728;2023-07-13T00:55:45;3.30;;;1.45;;
23561;SDS011;11959;49.418;8.728;2023-07-13T00:58:12;1.83;;;1.15;;
23561;SDS011;11959;49.418;8.728;2023-07-13T01:00:38;3.55;;;1.50;;
23561;SDS011;11959;49.418;8.728;2023-07-13T01:03:05;2.17;;;1.30;;
23561;SDS011;11959;49.418;8.728;2023-07-13T01:05:34;4.15;;;1.40;;
23561;SDS011;11959;49.418;8.728;2023-07-13T01:08:00;2.40;;;1.10;;
23561;SDS011;11959;49.418;8.728;2023-07-13T01:10:27;2.65;;;1.52;;
23561;SDS011;11959;49.418;8.728;2023-07-13T01:12:53;4.68;;;1.70;;
23561;SDS011;11959;49.418;8.728;2023-07-13T01:15:42;3.97;;;1.98;;
23561;SDS011;11959;49.418;8.728;2023-07-13T01:18:11;3.70;;;1.80;;
23561;SDS011;11959;49.418;8.728;2023-07-13T01:21:00;3.63;;;1.65;;
23561;SDS011;11959;49.418;8.728;2023-07-13T01:23:28;3.90;;;1.67;;
23561;SDS011;11959;49.418;8.728;2023-07-13T01:25:55;3.72;;;1.77;;
23561;SDS011;11959;49.418;8.728;2023-07-13T01:28:23;3.47;;;1.65;;
23561;SDS011;11959;49.418;8.728;2023-07-13T01:30:51;2.58;;;1.88;;
23561;SDS011;11959;49.418;8.728;2023-07-13T01:33:18;3.58;;;1.67;;
23561;SDS011;11959;49.418;8.728;2023-07-13T01:35:47;4.30;;;1.60;;
23561;SDS011;11959;49.418;8.728;2023-07-13T01:38:17;3.40;;;1.70;;
23561;SDS011;11959;49.418;8.728;2023-07-13T01:40:44;3.85;;;1.60;;
23561;SDS011;11959;49.418;8.728;2023-07-13T01:43:10;3.28;;;1.75;;
23561;SDS011;11959;49.418;8.728;2023-07-13T01:45:36;2.55;;;1.42;;
23561;SDS011;11959;49.418;8.728;2023-07-13T01:48:01;3.50;;;1.80;;
23561;SDS011;11959;49.418;8.728;2023-07-13T01:50:27;3.10;;;1.70;;
23561;SDS011;11959;49.418;8.728;2023-07-13T01:52:53;3.00;;;1.70;;
23561;SDS011;11959;49.418;8.728;2023-07-13T01:55:20;4.78;;;1.75;;
23561;SDS011;11959;49.418;8.728;2023-07-13T01:57:47;2.20;;;1.58;;
23561;SDS011;11959;49.418;8.728;2023-07-13T02:00:13;4.22;;;1.92;;
23561;SDS011;11959;49.418;8.728;2023-07-13T02:02:39;4.75;;;1.80;;
23561;SDS011;11959;49.418;8.728;2023-07-13T02:05:04;2.58;;;1.63;;
23561;SDS011;11959;49.418;8.728;2023-07-13T02:07:31;4.22;;;1.92;;
23561;SDS011;11959;49.418;8.728;2023-07-13T02:09:57;2.10;;;1.60;;
23561;SDS011;11959;49.418;8.728;2023-07-13T02:12:22;3.05;;;1.95;;
23561;SDS011;11959;49.418;8.728;2023-07-13T02:14:48;4.80;;;1.88;;
23561;SDS011;11959;49.418;8.728;2023-07-13T02:17:14;6.25;;;2.10;;
23561;SDS011;11959;49.418;8.728;2023-07-13T02:19:39;3.88;;;1.70;;
23561;SDS011;11959;49.418;8.728;2023-07-13T02:22:05;3.90;;;1.80;;
23561;SDS011;11959;49.418;8.728;2023-07-13T02:24:31;4.03;;;1.70;;
23561;SDS011;11959;49.418;8.728;2023-07-13T02:26:57;5.30;;;1.88;;
23561;SDS011;11959;49.418;8.728;2023-07-13T02:29:22;4.90;;;1.83;;
23561;SDS011;11959;49.418;8.728;2023-07-13T02:31:48;6.10;;;2.20;;
23561;SDS011;11959;49.418;8.728;2023-07-13T02:34:14;4.63;;;2.10;;
23561;SDS011;11959;49.418;8.728;2023-07-13T02:36:40;5.32;;;2.17;;
23561;SDS011;11959;49.418;8.728;2023-07-13T02:39:06;4.20;;;2.00;;
23561;SDS011;11959;49.418;8.728;2023-07-13T02:41:32;4.07;;;2.10;;
23561;SDS011;11959;49.418;8.728;2023-07-13T02:43:58;3.05;;;1.77;;
23561;SDS011;11959;49.418;8.728;2023-07-13T02:46:32;4.30;;;2.22;;
23561;SDS011;11959;49.418;8.728;2023-07-13T02:48:59;3.10;;;1.92;;
23561;SDS011;11959;49.418;8.728;2023-07-13T02:51:24;4.20;;;2.13;;
23561;SDS011;11959;49.418;8.728;2023-07-13T02:53:50;4.22;;;1.88;;
23561;SDS011;11959;49.418;8.728;2023-07-13T02:56:16;3.83;;;2.30;;
23561;SDS011;11959;49.418;8.728;2023-07-13T02:58:41;4.35;;;2.17;;
23561;SDS011;11959;49.418;8.728;2023-07-13T03:01:08;3.85;;;2.08;;
23561;SDS011;11959;49.418;8.728;2023-07-13T03:03:35;4.22;;;2.25;;
23561;SDS011;11959;49.418;8.728;2023-07-13T03:06:01;5.57;;;2.33;;
23561;SDS011;11959;49.418;8.728;2023-07-13T03:08:30;2.85;;;2.00;;
23561;SDS011;11959;49.418;8.728;2023-07-13T03:11:02;3.30;;;2.05;;
23561;SDS011;11959;49.418;8.728;2023-07-13T03:13:31;5.30;;;2.25;;
23561;SDS011;11959;49.418;8.728;2023-07-13T03:15:56;6.05;;;2.25;;
23561;SDS011;11959;49.418;8.728;2023-07-13T03:18:22;5.15;;;2.33;;
23561;SDS011;11959;49.418;8.728;2023-07-13T03:20:51;4.07;;;2.55;;
23561;SDS011;11959;49.418;8.728;2023-07-13T03:23:17;4.15;;;2.30;;
23561;SDS011;11959;49.418;8.728;2023-07-13T03:25:44;5.55;;;2.50;;
23561;SDS011;11959;49.418;8.728;2023-07-13T03:28:10;3.38;;;2.22;;
23561;SDS011;11959;49.418;8.728;2023-07-13T03:30:36;7.30;;;2.47;;
23561;SDS011;11959;49.418;8.728;2023-07-13T03:33:02;4.80;;;2.25;;
23561;SDS011;11959;49.418;8.728;2023-07-13T03:35:28;5.10;;;2.20;;
23561;SDS011;11959;49.418;8.728;2023-07-13T03:37:53;4.85;;;2.17;;
23561;SDS011;11959;49.418;8.728;2023-07-13T03:40:19;3.83;;;2.28;;
23561;SDS011;11959;49.418;8.728;2023-07-13T03:42:45;5.38;;;2.42;;
23561;SDS011;11959;49.418;8.728;2023-07-13T03:45:10;3.35;;;2.20;;
23561;SDS011;11959;49.418;8.728;2023-07-13T03:47:36;4.40;;;2.35;;
23561;SDS011;11959;49.418;8.728;2023-07-13T03:50:02;4.35;;;2.55;;
23561;SDS011;11959;49.418;8.728;2023-07-13T03:52:28;5.80;;;2.47;;
23561;SDS011;11959;49.418;8.728;2023-07-13T03:54:54;4.28;;;2.25;;
23561;SDS011;11959;49.418;8.728;2023-07-13T03:57:20;3.80;;;2.50;;
23561;SDS011;11959;49.418;8.728;2023-07-13T03:59:45;3.58;;;2.47;;
23561;SDS011;11959;49.418;8.728;2023-07-13T04:02:11;5.28;;;2.58;;
23561;SDS011;11959;49.418;8.728;2023-07-13T04:04:36;4.18;;;2.15;;
23561;SDS011;11959;49.418;8.728;2023-07-13T04:07:05;3.17;;;2.58;;
23561;SDS011;11959;49.418;8.728;2023-07-13T04:09:30;3.33;;;2.55;;
23561;SDS011;11959;49.418;8.728;2023-07-13T04:11:56;3.88;;;2.50;;
23561;SDS011;11959;49.418;8.728;2023-07-13T04:14:21;3.78;;;2.28;;
23561;SDS011;11959;49.418;8.728;2023-07-13T04:16:47;3.60;;;2.42;;
23561;SDS011;11959;49.418;8.728;2023-07-13T04:19:13;4.40;;;2.00;;
23561;SDS011;11959;49.418;8.728;2023-07-13T04:21:38;4.93;;;2.42;;
23561;SDS011;11959;49.418;8.728;2023-07-13T04:24:04;4.40;;;2.20;;
23561;SDS011;11959;49.418;8.728;2023-07-13T04:26:30;3.80;;;2.10;;
23561;SDS011;11959;49.418;8.728;2023-07-13T04:28:56;4.32;;;2.53;;
23561;SDS011;11959;49.418;8.728;2023-07-13T04:31:22;2.83;;;1.80;;
23561;SDS011;11959;49.418;8.728;2023-07-13T04:33:48;3.08;;;2.08;;
23561;SDS011;11959;49.418;8.728;2023-07-13T04:36:14;4.30;;;2.20;;
23561;SDS011;11959;49.418;8.728;2023-07-13T04:38:41;5.03;;;2.50;;
23561;SDS011;11959;49.418;8.728;2023-07-13T04:41:07;4.80;;;2.13;;
23561;SDS011;11959;49.418;8.728;2023-07-13T04:43:34;3.47;;;2.08;;
23561;SDS011;11959;49.418;8.728;2023-07-13T04:46:07;3.80;;;2.53;;
23561;SDS011;11959;49.418;8.728;2023-07-13T04:48:36;3.97;;;2.13;;
23561;SDS011;11959;49.418;8.728;2023-07-13T04:51:02;4.47;;;2.15;;
23561;SDS011;11959;49.418;8.728;2023-07-13T04:53:28;5.60;;;2.13;;
23561;SDS011;11959;49.418;8.728;2023-07-13T04:55:54;3.58;;;2.10;;
23561;SDS011;11959;49.418;8.728;2023-07-13T04:58:20;4.30;;;2.13;;
23561;SDS011;11959;49.418;8.728;2023-07-13T05:00:46;3.60;;;2.55;;
23561;SDS011;11959;49.418;8.728;2023-07-13T05:03:12;5.68;;;2.28;;
23561;SDS011;11959;49.418;8.728;2023-07-13T05:05:38;2.40;;;2.20;;
23561;SDS011;11959;49.418;8.728;2023-07-13T05:08:04;2.78;;;1.75;;
23561;SDS011;11959;49.418;8.728;2023-07-13T05:10:29;4.03;;;2.45;;
23561;SDS011;11959;49.418;8.728;2023-07-13T05:12:55;2.90;;;2.20;;
23561;SDS011;11959;49.418;8.728;2023-07-13T05:15:21;4.55;;;2.30;;
23561;SDS011;11959;49.418;8.728;2023-07-13T05:17:48;4.28;;;2.40;;
23561;SDS011;11959;49.418;8.728;2023-07-13T05:20:14;4.22;;;1.75;;
23561;SDS011;11959;49.418;8.728;2023-07-13T05:22:41;3.75;;;2.00;;
23561;SDS011;11959;49.418;8.728;2023-07-13T05:25:07;3.10;;;2.33;;
23561;SDS011;11959;49.418;8.728;2023-07-13T05:27:34;3.58;;;1.83;;
23561;SDS011;11959;49.418;8.728;2023-07-13T05:30:00;3.00;;;2.00;;
23561;SDS011;11959;49.418;8.728;2023-07-13T05:32:27;4.00;;;1.77;;
23561;SDS011;11959;49.418;8.728;2023-07-13T05:34:52;3.38;;;1.70;;
23561;SDS011;11959;49.418;8.728;2023-07-13T05:37:18;3.20;;;2.08;;
23561;SDS011;11959;49.418;8.728;2023-07-13T05:39:44;6.07;;;1.95;;
23561;SDS011;11959;49.418;8.728;2023-07-13T05:42:09;3.33;;;1.90;;
23561;SDS011;11959;49.418;8.728;2023-07-13T05:44:35;4.20;;;1.90;;
23561;SDS011;11959;49.418;8.728;2023-07-13T05:47:01;3.17;;;1.80;;
23561;SDS011;11959;49.418;8.728;2023-07-13T05:49:26;4.05;;;1.85;;
23561;SDS011;11959;49.418;8.728;2023-07-13T05:51:52;2.40;;;1.70;;
23561;SDS011;11959;49.418;8.728;2023-07-13T05:54:18;2.70;;;1.85;;
23561;SDS011;11959;49.418;8.728;2023-07-13T05:56:43;3.45;;;2.08;;
23561;SDS011;11959;49.418;8.728;2023-07-13T05:59:09;4.22;;;1.88;;
23561;SDS011;11959;49.418;8.728;2023-07-13T06:01:34;2.83;;;1.60;;
23561;SDS011;11959;49.418;8.728;2023-07-13T06:04:00;4.95;;;2.03;;
23561;SDS011;11959;49.418;8.728;2023-07-13T06:06:26;3.22;;;1.80;;
23561;SDS011;11959;49.418;8.728;2023-07-13T06:08:52;5.10;;;1.75;;
23561;SDS011;11959;49.418;8.728;2023-07-13T06:11:22;2.20;;;1.55;;
23561;SDS011;11959;49.418;8.728;2023-07-13T06:13:49;3.25;;;1.73;;
23561;SDS011;11959;49.418;8.728;2023-07-13T06:16:15;4.18;;;1.80;;
23561;SDS011;11959;49.418;8.728;2023-07-13T06:18:41;3.55;;;1.75;;
23561;SDS011;11959;49.418;8.728;2023-07-13T06:21:11;3.75;;;1.60;;
23561;SDS011;11959;49.418;8.728;2023-07-13T06:23:43;3.63;;;1.80;;
23561;SDS011;11959;49.418;8.728;2023-07-13T06:26:09;4.15;;;2.20;;
23561;SDS011;11959;49.418;8.728;2023-07-13T06:28:36;3.03;;;1.63;;
23561;SDS011;11959;49.418;8.728;2023-07-13T06:31:04;4.13;;;1.90;;
23561;SDS011;11959;49.418;8.728;2023-07-13T06:33:31;4.35;;;2.03;;
23561;SDS011;11959;49.418;8.728;2023-07-13T06:35:58;3.13;;;1.48;;
23561;SDS011;11959;49.418;8.728;2023-07-13T06:38:23;4.30;;;1.80;;
23561;SDS011;11959;49.418;8.728;2023-07-13T06:40:49;4.72;;;2.05;;
23561;SDS011;11959;49.418;8.728;2023-07-13T06:43:14;3.20;;;1.92;;
23561;SDS011;11959;49.418;8.728;2023-07-13T06:45:44;5.78;;;2.05;;
23561;SDS011;11959;49.418;8.728;2023-07-13T06:48:14;2.80;;;1.60;;
23561;SDS011;11959;49.418;8.728;2023-07-13T06:50:41;4.32;;;1.80;;
23561;SDS011;11959;49.418;8.728;2023-07-13T06:53:07;3.38;;;1.75;;
23561;SDS011;11959;49.418;8.728;2023-07-13T06:55:33;2.72;;;1.73;;
23561;SDS011;11959;49.418;8.728;2023-07-13T06:57:59;4.47;;;1.90;;
23561;SDS011;11959;49.418;8.728;2023-07-13T07:00:25;3.17;;;1.50;;
23561;SDS011;11959;49.418;8.728;2023-07-13T07:02:50;4.93;;;1.63;;
23561;SDS011;11959;49.418;8.728;2023-07-13T07:05:16;2.70;;;1.30;;
23561;SDS011;11959;49.418;8.728;2023-07-13T07:07:42;2.63;;;1.40;;
23561;SDS011;11959;49.418;8.728;2023-07-13T07:10:07;4.30;;;1.95;;
23561;SDS011;11959;49.418;8.728;2023-07-13T07:12:33;4.43;;;1.70;;
23561;SDS011;11959;49.418;8.728;2023-07-13T07:14:59;2.72;;;1.52;;
23561;SDS011;11959;49.418;8.728;2023-07-13T07:17:25;3.63;;;1.52;;
23561;SDS011;11959;49.418;8.728;2023-07-13T07:19:51;3.88;;;1.55;;
23561;SDS011;11959;49.418;8.728;2023-07-13T07:22:18;5.30;;;1.45;;
23561;SDS011;11959;49.418;8.728;2023-07-13T07:24:45;4.60;;;1.45;;
23561;SDS011;11959;49.418;8.728;2023-07-13T07:27:10;4.05;;;1.48;;
23561;SDS011;11959;49.418;8.728;2023-07-13T07:29:36;3.13;;;1.27;;
23561;SDS011;11959;49.418;8.728;2023-07-13T07:32:02;2.92;;;1.38;;
23561;SDS011;11959;49.418;8.728;2023-07-13T07:34:28;3.20;;;1.30;;
23561;SDS011;11959;49.418;8.728;2023-07-13T07:36:53;3.75;;;1.50;;
23561;SDS011;11959;49.418;8.728;2023-07-13T07:39:19;3.85;;;1.50;;
23561;SDS011;11959;49.418;8.728;2023-07-13T07:41:45;4.95;;;1.40;;
23561;SDS011;11959;49.418;8.728;2023-07-13T07:44:10;5.68;;;1.55;;
23561;SDS011;11959;49.418;8.728;2023-07-13T07:46:36;3.55;;;1.52;;
23561;SDS011;11959;49.418;8.728;2023-07-13T07:49:02;2.28;;;0.90;;
23561;SDS011;11959;49.418;8.728;2023-07-13T07:51:27;4.38;;;0.90;;
23561;SDS011;11959;49.418;8.728;2023-07-13T07:53:53;2.17;;;1.30;;
23561;SDS011;11959;49.418;8.728;2023-07-13T07:56:19;4.40;;;1.15;;
23561;SDS011;11959;49.418;8.728;2023-07-13T07:58:45;3.00;;;1.30;;
23561;SDS011;11959;49.418;8.728;2023-07-13T08:01:10;4.22;;;1.70;;
23561;SDS011;11959;49.418;8.728;2023-07-13T08:03:36;8.90;;;2.13;;
23561;SDS011;11959;49.418;8.728;2023-07-13T08:06:01;4.03;;;1.30;;
23561;SDS011;11959;49.418;8.728;2023-07-13T08:08:27;2.03;;;1.08;;
23561;SDS011;11959;49.418;8.728;2023-07-13T08:10:53;3.65;;;1.50;;
23561;SDS011;11959;49.418;8.728;2023-07-13T08:13:19;4.20;;;1.80;;
23561;SDS011;11959;49.418;8.728;2023-07-13T08:15:45;4.60;;;1.40;;
23561;SDS011;11959;49.418;8.728;2023-07-13T08:18:11;3.85;;;1.40;;
23561;SDS011;11959;49.418;8.728;2023-07-13T08:20:37;2.75;;;1.40;;
23561;SDS011;11959;49.418;8.728;2023-07-13T08:23:04;4.50;;;1.45;;
23561;SDS011;11959;49.418;8.728;2023-07-13T08:25:29;3.88;;;1.20;;
23561;SDS011;11959;49.418;8.728;2023-07-13T08:27:55;4.20;;;1.40;;
23561;SDS011;11959;49.418;8.728;2023-07-13T08:30:21;3.47;;;1.40;;
23561;SDS011;11959;49.418;8.728;2023-07-13T08:32:46;4.60;;;1.75;;
23561;SDS011;11959;49.418;8.728;2023-07-13T08:35:12;3.97;;;1.27;;
23561;SDS011;11959;49.418;8.728;2023-07-13T08:37:38;4.38;;;1.48;;
23561;SDS011;11959;49.418;8.728;2023-07-13T08:40:04;4.57;;;1.65;;
23561;SDS011;11959;49.418;8.728;2023-07-13T08:47:37;3.97;;;1.52;;
23561;SDS011;11959;49.418;8.728;2023-07-13T08:50:27;4.57;;;1.30;;
23561;SDS011;11959;49.418;8.728;2023-07-13T08:52:56;5.75;;;1.65;;
23561;SDS011;11959;49.418;8.728;2023-07-13T08:55:26;3.35;;;1.70;;
23561;SDS011;11959;49.418;8.728;2023-07-13T08:58:00;4.63;;;1.95;;
23561;SDS011;11959;49.418;8.728;2023-07-13T09:00:37;3.67;;;1.48;;
23561;SDS011;11959;49.418;8.728;2023-07-13T09:03:23;3.85;;;1.58;;
23561;SDS011;11959;49.418;8.728;2023-07-13T09:05:54;6.65;;;1.70;;
23561;SDS011;11959;49.418;8.728;2023-07-13T09:11:18;4.65;;;1.70;;
23561;SDS011;11959;49.418;8.728;2023-07-13T09:16:49;7.15;;;2.40;;
23561;SDS011;11959;49.418;8.728;2023-07-13T09:19:21;3.83;;;1.58;;
23561;SDS011;11959;49.418;8.728;2023-07-13T09:21:53;4.18;;;1.38;;
23561;SDS011;11959;49.418;8.728;2023-07-13T09:27:14;3.42;;;1.42;;
23561;SDS011;11959;49.418;8.728;2023-07-13T09:29:48;2.78;;;1.60;;
23561;SDS011;11959;49.418;8.728;2023-07-13T09:32:20;4.38;;;1.38;;
23561;SDS011;11959;49.418;8.728;2023-07-13T09:34:52;4.38;;;1.35;;
23561;SDS011;11959;49.418;8.728;2023-07-13T09:37:20;2.55;;;1.50;;
23561;SDS011;11959;49.418;8.728;2023-07-13T09:39:56;5.78;;;1.40;;
23561;SDS011;11959;49.418;8.728;2023-07-13T09:42:24;3.50;;;1.30;;
23561;SDS011;11959;49.418;8.728;2023-07-13T09:44:58;3.42;;;1.40;;
23561;SDS011;11959;49.418;8.728;2023-07-13T09:47:30;6.13;;;1.67;;
23561;SDS011;11959;49.418;8.728;2023-07-13T09:49:58;4.90;;;1.50;;
23561;SDS011;11959;49.418;8.728;2023-07-13T09:58:03;2.40;;;1.40;;
23561;SDS011;11959;49.418;8.728;2023-07-13T10:00:30;5.50;;;1.30;;
23561;SDS011;11959;49.418;8.728;2023-07-13T10:03:31;5.70;;;1.60;;
23561;SDS011;11959;49.418;8.728;2023-07-13T10:05:51;4.25;;;1.55;;
23561;SDS011;11959;49.418;8.728;2023-07-13T10:08:24;4.22;;;1.42;;
23561;SDS011;11959;49.418;8.728;2023-07-13T10:13:33;2.85;;;1.20;;
23561;SDS011;11959;49.418;8.728;2023-07-13T10:16:02;3.70;;;1.58;;
23561;SDS011;11959;49.418;8.728;2023-07-13T10:18:30;4.13;;;1.60;;
23561;SDS011;11959;49.418;8.728;2023-07-13T10:23:47;2.17;;;1.20;;
23561;SDS011;11959;49.418;8.728;2023-07-13T10:26:18;3.60;;;1.60;;
23561;SDS011;11959;49.418;8.728;2023-07-13T10:28:56;4.07;;;1.20;;
23561;SDS011;11959;49.418;8.728;2023-07-13T10:31:29;4.13;;;1.63;;
23561;SDS011;11959;49.418;8.728;2023-07-13T10:33:56;3.70;;;1.38;;
23561;SDS011;11959;49.418;8.728;2023-07-13T10:36:28;5.15;;;1.73;;
23561;SDS011;11959;49.418;8.728;2023-07-13T10:39:04;6.25;;;1.52;;
23561;SDS011;11959;49.418;8.728;2023-07-13T10:41:32;3.55;;;1.48;;
23561;SDS011;11959;49.418;8.728;2023-07-13T10:44:02;4.07;;;1.42;;
23561;SDS011;11959;49.418;8.728;2023-07-13T10:46:31;4.20;;;1.60;;
23561;SDS011;11959;49.418;8.728;2023-07-13T10:49:01;5.13;;;1.45;;
23561;SDS011;11959;49.418;8.728;2023-07-13T10:51:30;5.00;;;1.27;;
23561;SDS011;11959;49.418;8.728;2023-07-13T10:56:43;3.30;;;1.45;;
23561;SDS011;11959;49.418;8.728;2023-07-13T10:59:13;3.90;;;1.30;;
23561;SDS011;11959;49.418;8.728;2023-07-13T11:01:53;2.00;;;0.98;;
23561;SDS011;11959;49.418;8.728;2023-07-13T11:04:21;4.57;;;1.30;;
23561;SDS011;11959;49.418;8.728;2023-07-13T11:06:50;4.88;;;1.45;;
23561;SDS011;11959;49.418;8.728;2023-07-13T11:11:59;4.15;;;1.45;;
23561;SDS011;11959;49.418;8.728;2023-07-13T11:15:00;5.07;;;1.25;;
23561;SDS011;11959;49.418;8.728;2023-07-13T11:17:23;4.25;;;1.40;;
23561;SDS011;11959;49.418;8.728;2023-07-13T11:22:47;3.20;;;1.17;;
23561;SDS011;11959;49.418;8.728;2023-07-13T11:27:52;4.63;;;1.17;;
23561;SDS011;11959;49.418;8.728;2023-07-13T11:33:56;2.42;;;1.10;;
23561;SDS011;11959;49.418;8.728;2023-07-13T11:36:06;3.15;;;1.10;;
23561;SDS011;11959;49.418;8.728;2023-07-13T11:38:38;3.72;;;1.30;;
23561;SDS011;11959;49.418;8.728;2023-07-13T11:41:06;3.65;;;1.02;;
23561;SDS011;11959;49.418;8.728;2023-07-13T11:43:50;3.13;;;1.05;;
23561;SDS011;11959;49.418;8.728;2023-07-13T11:46:26;1.80;;;1.03;;
23561;SDS011;11959;49.418;8.728;2023-07-13T11:48:52;2.50;;;1.25;;
23561;SDS011;11959;49.418;8.728;2023-07-13T11:53:51;2.55;;;1.10;;
23561;SDS011;11959;49.418;8.728;2023-07-13T11:56:18;3.30;;;1.13;;
23561;SDS011;11959;49.418;8.728;2023-07-13T11:58:47;3.30;;;1.20;;
23561;SDS011;11959;49.418;8.728;2023-07-13T12:01:22;2.75;;;1.00;;
23561;SDS011;11959;49.418;8.728;2023-07-13T12:03:51;3.80;;;1.00;;
23561;SDS011;11959;49.418;8.728;2023-07-13T12:08:51;2.67;;;1.13;;
23561;SDS011;11959;49.418;8.728;2023-07-13T12:11:17;6.30;;;1.60;;
23561;SDS011;11959;49.418;8.728;2023-07-13T12:13:43;3.67;;;1.10;;
23561;SDS011;11959;49.418;8.728;2023-07-13T12:16:26;6.50;;;1.40;;
23561;SDS011;11959;49.418;8.728;2023-07-13T12:18:57;1.70;;;0.90;;
23561;SDS011;11959;49.418;8.728;2023-07-13T12:21:32;4.22;;;1.13;;
23561;SDS011;11959;49.418;8.728;2023-07-13T12:23:59;3.05;;;1.00;;
23561;SDS011;11959;49.418;8.728;2023-07-13T12:26:29;3.58;;;1.30;;
23561;SDS011;11959;49.418;8.728;2023-07-13T12:28:57;2.55;;;1.25;;
23561;SDS011;11959;49.418;8.728;2023-07-13T12:31:30;2.45;;;1.25;;
23561;SDS011;11959;49.418;8.728;2023-07-13T12:36:25;3.00;;;1.30;;
23561;SDS011;11959;49.418;8.728;2023-07-13T12:38:52;4.35;;;1.30;;
23561;SDS011;11959;49.418;8.728;2023-07-13T12:41:18;2.15;;;1.10;;
23561;SDS011;11959;49.418;8.728;2023-07-13T12:43:44;4.35;;;1.20;;
23561;SDS011;11959;49.418;8.728;2023-07-13T12:46:21;2.47;;;1.15;;
23561;SDS011;11959;49.418;8.728;2023-07-13T12:48:52;2.80;;;1.10;;
23561;SDS011;11959;49.418;8.728;2023-07-13T12:51:21;3.10;;;1.02;;
23561;SDS011;11959;49.418;8.728;2023-07-13T12:53:50;7.68;;;1.60;;
23561;SDS011;11959;49.418;8.728;2023-07-13T12:56:23;4.47;;;1.30;;
23561;SDS011;11959;49.418;8.728;2023-07-13T12:58:57;2.80;;;0.90;;
23561;SDS011;11959;49.418;8.728;2023-07-13T13:01:30;6.20;;;1.20;;
23561;SDS011;11959;49.418;8.728;2023-07-13T13:04:00;3.90;;;1.33;;
23561;SDS011;11959;49.418;8.728;2023-07-13T13:06:31;2.47;;;1.05;;
23561;SDS011;11959;49.418;8.728;2023-07-13T13:08:58;4.45;;;1.40;;
23561;SDS011;11959;49.418;8.728;2023-07-13T13:11:25;2.80;;;0.88;;
23561;SDS011;11959;49.418;8.728;2023-07-13T13:13:52;2.13;;;0.90;;
23561;SDS011;11959;49.418;8.728;2023-07-13T13:18:59;2.45;;;1.23;;
23561;SDS011;11959;49.418;8.728;2023-07-13T13:21:47;3.30;;;1.17;;
23561;SDS011;11959;49.418;8.728;2023-07-13T13:24:15;3.90;;;1.20;;
23561;SDS011;11959;49.418;8.728;2023-07-13T13:26:43;5.20;;;1.20;;
23561;SDS011;11959;49.418;8.728;2023-07-13T13:29:11;2.17;;;1.23;;
23561;SDS011;11959;49.418;8.728;2023-07-13T13:31:41;3.90;;;1.30;;
23561;SDS011;11959;49.418;8.728;2023-07-13T13:34:08;3.00;;;1.00;;
23561;SDS011;11959;49.418;8.728;2023-07-13T13:36:36;2.35;;;1.08;;
23561;SDS011;11959;49.418;8.728;2023-07-13T13:39:02;3.97;;;1.48;;
23561;SDS011;11959;49.418;8.728;2023-07-13T13:41:31;3.47;;;1.20;;
23561;SDS011;11959;49.418;8.728;2023-07-13T13:43:57;3.60;;;1.30;;
23561;SDS011;11959;49.418;8.728;2023-07-13T13:46:24;3.13;;;1.10;;
23561;SDS011;11959;49.418;8.728;2023-07-13T13:48:50;4.75;;;1.15;;
23561;SDS011;11959;49.418;8.728;2023-07-13T13:51:17;3.17;;;1.10;;
23561;SDS011;11959;49.418;8.728;2023-07-13T13:53:45;2.97;;;1.10;;
23561;SDS011;11959;49.418;8.728;2023-07-13T13:56:12;4.10;;;1.08;;
23561;SDS011;11959;49.418;8.728;2023-07-13T13:58:43;3.50;;;1.27;;
23561;SDS011;11959;49.418;8.728;2023-07-13T14:01:27;2.00;;;1.17;;
23561;SDS011;11959;49.418;8.728;2023-07-13T14:03:54;3.88;;;1.45;;
23561;SDS011;11959;49.418;8.728;2023-07-13T14:06:19;3.58;;;1.10;;
23561;SDS011;11959;49.418;8.728;2023-07-13T14:08:45;4.72;;;1.30;;
23561;SDS011;11959;49.418;8.728;2023-07-13T14:11:16;3.55;;;1.45;;
23561;SDS011;11959;49.418;8.728;2023-07-13T14:13:45;2.97;;;1.45;;
23561;SDS011;11959;49.418;8.728;2023-07-13T14:16:18;2.38;;;1.17;;
23561;SDS011;11959;49.418;8.728;2023-07-13T14:18:46;3.60;;;1.23;;
23561;SDS011;11959;49.418;8.728;2023-07-13T14:21:21;4.05;;;1.27;;
23561;SDS011;11959;49.418;8.728;2023-07-13T14:23:48;2.88;;;1.10;;
23561;SDS011;11959;49.418;8.728;2023-07-13T14:26:18;3.03;;;1.17;;
23561;SDS011;11959;49.418;8.728;2023-07-13T14:28:50;2.47;;;0.90;;
23561;SDS011;11959;49.418;8.728;2023-07-13T14:31:18;5.72;;;1.40;;
23561;SDS011;11959;49.418;8.728;2023-07-13T14:33:44;3.65;;;1.45;;
23561;SDS011;11959;49.418;8.728;2023-07-13T14:38:51;3.78;;;1.20;;
23561;SDS011;11959;49.418;8.728;2023-07-13T14:41:17;2.05;;;1.00;;
23561;SDS011;11959;49.418;8.728;2023-07-13T14:43:42;3.05;;;1.35;;
23561;SDS011;11959;49.418;8.728;2023-07-13T14:46:15;3.13;;;1.10;;
23561;SDS011;11959;49.418;8.728;2023-07-13T14:48:52;3.90;;;1.50;;
23561;SDS011;11959;49.418;8.728;2023-07-13T14:51:23;3.90;;;1.45;;
23561;SDS011;11959;49.418;8.728;2023-07-13T14:53:49;3.47;;;1.33;;
23561;SDS011;11959;49.418;8.728;2023-07-13T14:56:14;3.75;;;1.35;;
23561;SDS011;11959;49.418;8.728;2023-07-13T14:58:42;2.22;;;1.27;;
23561;SDS011;11959;49.418;8.728;2023-07-13T15:01:14;3.03;;;1.33;;
23561;SDS011;11959;49.418;8.728;2023-07-13T15:03:41;3.97;;;1.17;;
23561;SDS011;11959;49.418;8.728;2023-07-13T15:06:10;4.68;;;1.23;;
23561;SDS011;11959;49.418;8.728;2023-07-13T15:08:38;2.63;;;1.35;;
23561;SDS011;11959;49.418;8.728;2023-07-13T15:11:05;3.15;;;1.38;;
23561;SDS011;11959;49.418;8.728;2023-07-13T15:13:36;2.58;;;1.25;;
23561;SDS011;11959;49.418;8.728;2023-07-13T15:16:03;2.78;;;1.27;;
23561;SDS011;11959;49.418;8.728;2023-07-13T15:18:30;3.72;;;1.30;;
23561;SDS011;11959;49.418;8.728;2023-07-13T15:20:56;3.92;;;1.30;;
23561;SDS011;11959;49.418;8.728;2023-07-13T15:23:25;3.40;;;1.40;;
23561;SDS011;11959;49.418;8.728;2023-07-13T15:25:52;3.25;;;1.30;;
23561;SDS011;11959;49.418;8.728;2023-07-13T15:28:17;3.75;;;1.40;;
23561;SDS011;11959;49.418;8.728;2023-07-13T15:30:47;4.35;;;1.10;;
23561;SDS011;11959;49.418;8.728;2023-07-13T15:33:19;2.28;;;1.13;;
23561;SDS011;11959;49.418;8.728;2023-07-13T15:35:49;3.28;;;1.73;;
23561;SDS011;11959;49.418;8.728;2023-07-13T15:38:17;2.35;;;1.00;;
23561;SDS011;11959;49.418;8.728;2023-07-13T15:40:45;3.58;;;1.35;;
23561;SDS011;11959;49.418;8.728;2023-07-13T15:43:12;5.07;;;1.42;;
23561;SDS011;11959;49.418;8.728;2023-07-13T15:45:40;2.80;;;1.30;;
23561;SDS011;11959;49.418;8.728;2023-07-13T15:48:16;5.30;;;1.52;;